EST,Max TemperatureF,Mean TemperatureF,Min TemperatureF,Max Dew PointF,MeanDew PointF,Min DewpointF,Max Humidity, Mean Humidity, Min Humidity, Max Sea Level PressureIn, Mean Sea Level PressureIn, Min Sea Level PressureIn, Max VisibilityMiles, Mean VisibilityMiles, Min VisibilityMiles, Max Wind SpeedMPH, Mean Wind SpeedMPH, Max Gust SpeedMPH,PrecipitationIn, CloudCover, Events, WindDirDegrees
2012-11-1,54,50,45,40,40,39,71,65,59,29.60,29.57,29.54,10,10,10,15,9,20,0.00,6,,247
2012-11-2,56,50,43,40,35,29,71,53,35,29.71,29.62,29.58,10,10,10,22,10,26,T,7,,282
2012-11-3,54,47,40,33,31,28,73,56,38,29.90,29.80,29.71,10,10,10,21,10,26,0.00,5,,307
2012-11-4,54,46,38,32,30,29,82,62,41,29.99,29.93,29.89,10,10,10,16,8,23,0.00,2,,306
2012-11-5,46,40,33,29,23,19,59,50,41,30.18,30.05,29.97,10,10,10,17,9,23,0.00,3,,334
2012-11-6,42,36,29,21,19,17,59,49,38,30.25,30.19,30.11,10,10,10,14,7,18,0.00,0,,33
2012-11-7,39,35,31,32,29,20,96,70,44,30.09,29.84,29.72,10,3,0,29,19,36,0.45,7,Fog-Snow,7
2012-11-8,43,38,33,31,29,27,89,71,53,29.87,29.73,29.69,10,6,1,22,13,30,0.25,8,Snow,336
2012-11-9,54,45,36,33,24,18,64,46,28,30.18,30.02,29.87,10,10,10,23,10,31,0.00,0,,320
2012-11-10,55,48,40,43,38,33,74,63,51,30.44,30.31,30.19,10,9,6,13,4,15,T,4,,262
2012-11-11,62,52,42,52,48,39,96,80,64,30.51,30.47,30.44,10,7,2,13,5,16,0.00,1,,202
2012-11-12,63,54,44,58,52,43,100,89,78,30.48,30.41,30.21,10,5,0,12,5,16,T,5,Fog,180
2012-11-13,60,49,38,58,45,28,100,80,60,30.44,30.25,30.13,10,10,5,18,8,25,0.05,6,Rain,304
2012-11-14,49,42,35,27,26,24,70,55,39,30.52,30.48,30.45,10,10,10,16,9,20,0.00,2,,6
2012-11-15,43,39,34,31,27,23,76,66,55,30.46,30.39,30.30,10,10,10,21,7,26,0.00,0,,4
2012-11-16,49,42,34,28,25,23,70,54,38,30.44,30.34,30.29,10,10,10,12,6,16,0.00,0,,360
2012-11-17,53,43,32,34,30,25,75,58,41,30.64,30.57,30.44,10,10,10,16,6,21,0.00,0,,36
2012-11-18,49,42,35,36,32,29,82,69,56,30.69,30.64,30.60,10,10,10,14,8,17,0.00,1,,33
2012-11-19,51,43,35,39,34,29,85,73,61,30.58,30.42,30.26,10,10,10,15,8,18,0.00,4,,15
2012-11-20,50,42,34,36,33,30,89,73,56,30.24,30.18,30.13,10,10,10,10,5,13,0.00,0,,20
2012-11-21,55,47,39,33,30,27,70,53,35,30.25,30.20,30.16,10,10,10,13,7,15,0.00,0,,14
2012-11-22,53,45,36,42,37,33,92,78,63,30.27,30.22,30.14,10,9,4,9,5,12,0.00,0,,30
2012-11-23,53,42,31,48,41,31,100,86,71,30.13,29.92,29.68,10,7,2,12,4,14,0.04,3,Rain,217
2012-11-24,50,43,35,46,24,16,93,62,31,29.79,29.70,29.63,10,10,9,28,15,35,T,4,,286
2012-11-25,43,38,33,24,20,16,59,48,36,29.95,29.87,29.80,10,10,10,23,11,29,0.00,3,,268
2012-11-26,49,40,30,26,22,19,72,52,31,30.27,30.08,29.94,10,10,10,17,6,23,0.00,3,,274
2012-11-27,41,36,31,36,32,24,96,78,59,30.32,30.26,30.20,10,7,2,14,6,18,0.43,8,Rain-Snow,13
2012-11-28,44,38,32,33,27,21,92,69,45,30.25,30.20,30.16,10,10,9,17,7,22,0.00,3,,318
2012-11-29,44,37,30,29,26,23,78,62,45,30.34,30.28,30.25,10,10,10,17,9,23,0.00,0,,252
2012-11-30,44,38,31,32,27,22,85,69,53,30.49,30.40,30.30,10,10,7,17,8,21,0.00,5,,41